メインページ
METAR-TAF:

METAR-TAF

空港 :

ラバト, モロッコ

ラバト=サレ空港

緯度: 34-03N, 経度: 006-46W, 海抜: 84m

現時点の気象観測

当レポートは27分前の23:30(UTC)に作成
南東の風 3kt、からの間で変化する
気温 11°C
湿度 87%
気圧 1009 hPa
視程10km以上

METAR: GMME 242330Z 14003KT 100V180 9999 NSC 11/09 Q1009 NOSIG

時間: 23:57 (23:57 UTC)

予報

予報は24日の 23時(UTC)から 25日の 00時(UTC)まで有効
南東の風 4kt
視程: 8000m
確率 30% :
25日の 03時(UTC)から 25日の 08時(UTC)まで一時的に
変向風 2kt
視程: 3000m
高度1000ftの雲は散在している
25日の 10時(UTC)から 25日の 14時(UTC)まで徐々に
北東の風 8kt
視程10km以上
1,500メートル以下は雲なし、積乱雲なし

TAF: GMME 242300 2500/2606 14004KT 8000 NSC PROB30 TEMPO 2503/2508 VRB02KT 3000 BR SCT010 BECMG 2510/2514 04008KT CAVOK

4,000以上の空港の気象観測と天気予報(METAR報とTAF報)

利用可能な観測所は地図上に黄色い丸と赤い丸で示す。

丸の上にカーソルを重ねると観測所名を参照できる。

次にクリックすると気象観測と天気予報を参照できる。

マップの切り替え:黒色「×」印の緑ボタンをクリックして拡大、「-」印の緑ボタンをクリックして縮小、緑色の三角印をクリックして隣りの地図に切り替え


METAR-TAF: